Terminal Aerodrome Forecast
Issued by NWS

Home | Current Version | Previous Version | Text Only | Print | Product List | Glossary On
Versions: 1 2 3 4 5 6 7 8 9 10 11 12 13 14 15 16 17
000
FTUS42 KTAE 182337
TAFECP
TAF
KECP 182337Z 1900/1924 12004KT P6SM OVC250
     FM190200 18003KT P6SM -RA SCT020 OVC250
     FM190500 18003KT 5SM -RA BR OVC007
     FM191200 21010G20KT 3SM TSRA BKN020CB
     FM191900 21010G15KT P6SM OVC015=

USA.gov is the U.S. government's official web portal to all federal, state and local government web resources and services.